Time;durP1;ratioP1;P1;durP2;ratioP2;P2;SDS_P1;SDS_P2;PMS_P1;PMS_P2;Temp;Humidity;BMP_temperature;BMP_pressure;BME280_temperature;BME280_humidity;BME280_pressure;Samples;Min_cycle;Max_cycle;Signal;HPM_P1;HPM_P2
2021/03/24 00:02:00;;;;;;;20.23;16.00;;;5.00;89.70;;;;;;10522871;28;20299;-77
2021/03/24 00:07:01;;;;;;;22.20;17.13;;;5.00;89.60;;;;;;10521754;28;20299;-78
2021/03/24 00:12:04;;;;;;;21.40;16.73;;;4.90;90.00;;;;;;10524080;28;20200;-78
2021/03/24 00:17:07;;;;;;;20.23;16.90;;;4.80;90.00;;;;;;10522727;28;20217;-78
2021/03/24 00:22:08;;;;;;;20.93;16.63;;;4.80;90.10;;;;;;10520210;28;20302;-77
2021/03/24 00:27:10;;;;;;;21.40;16.20;;;4.80;90.10;;;;;;10527138;28;20217;-77
2021/03/24 00:32:12;;;;;;;19.57;16.10;;;4.70;90.10;;;;;;10523399;28;20240;-78
2021/03/24 00:37:14;;;;;;;19.40;17.30;;;4.70;90.20;;;;;;10522035;28;20582;-78
2021/03/24 00:42:16;;;;;;;16.43;14.73;;;4.70;90.30;;;;;;10523216;28;20574;-77
2021/03/24 00:47:18;;;;;;;19.73;16.37;;;4.70;90.10;;;;;;10522611;28;20242;-78
2021/03/24 00:52:20;;;;;;;17.30;15.00;;;4.70;90.20;;;;;;10521157;28;20227;-78
2021/03/24 00:57:22;;;;;;;21.97;16.80;;;4.60;90.20;;;;;;10526263;28;20220;-77
2021/03/24 01:02:24;;;;;;;17.17;15.23;;;4.60;90.30;;;;;;10506463;28;20224;-78
2021/03/24 01:07:26;;;;;;;18.33;16.30;;;4.50;90.30;;;;;;10522540;28;20253;-78
2021/03/24 01:12:27;;;;;;;19.67;16.37;;;4.50;90.30;;;;;;10522307;28;20198;-78
2021/03/24 01:17:30;;;;;;;21.27;17.27;;;4.40;90.30;;;;;;10523839;28;20212;-78
2021/03/24 01:22:32;;;;;;;19.07;15.40;;;4.40;90.40;;;;;;10523431;28;20277;-78
2021/03/24 01:27:33;;;;;;;17.60;15.70;;;4.30;90.50;;;;;;10510098;28;20638;-78
2021/03/24 01:32:38;;;;;;;21.00;17.13;;;4.30;90.30;;;;;;10554883;28;20255;-78
2021/03/24 01:37:41;;;;;;;21.87;17.10;;;4.20;90.60;;;;;;10565074;28;20299;-77
2021/03/24 01:42:43;;;;;;;19.23;16.90;;;4.10;90.50;;;;;;10582004;28;20264;-77
2021/03/24 01:47:46;;;;;;;21.83;17.70;;;4.10;90.60;;;;;;10582529;28;20240;-77
2021/03/24 01:52:48;;;;;;;19.13;16.37;;;4.10;90.70;;;;;;10572250;28;20189;-78
2021/03/24 01:57:50;;;;;;;20.47;16.47;;;4.00;90.80;;;;;;10524633;28;20473;-78
2021/03/24 02:02:53;;;;;;;18.90;16.90;;;4.00;91.00;;;;;;10519225;28;20219;-78
2021/03/24 02:07:59;;;;;;;18.07;16.17;;;4.00;90.90;;;;;;10523576;28;20744;-78
2021/03/24 02:13:06;;;;;;;20.80;17.30;;;4.00;90.80;;;;;;10523942;28;20196;-78
2021/03/24 02:18:12;;;;;;;17.90;16.00;;;4.00;90.90;;;;;;10527501;28;20216;-78
2021/03/24 02:23:21;;;;;;;18.50;15.70;;;3.90;90.70;;;;;;10542676;28;20558;-78
2021/03/24 02:28:25;;;;;;;23.77;17.90;;;3.90;90.90;;;;;;10578950;22;20235;-82
2021/03/24 02:33:30;;;;;;;18.50;16.60;;;3.90;91.30;;;;;;10542548;28;20237;-82
2021/03/24 02:38:34;;;;;;;19.93;16.20;;;3.90;90.80;;;;;;10556962;28;20319;-80
2021/03/24 02:43:37;;;;;;;19.50;16.20;;;3.80;91.00;;;;;;10550690;28;20204;-80
2021/03/24 02:48:40;;;;;;;17.80;15.60;;;3.90;91.20;;;;;;10551410;28;20223;-80
2021/03/24 02:53:43;;;;;;;19.80;16.47;;;3.80;91.20;;;;;;10552213;28;20195;-79
2021/03/24 02:58:45;;;;;;;19.60;16.87;;;3.90;91.30;;;;;;10555123;28;20220;-80
2021/03/24 03:03:51;;;;;;;19.17;16.83;;;3.90;91.30;;;;;;10565975;28;20212;-79
2021/03/24 03:08:57;;;;;;;16.83;15.03;;;3.90;91.10;;;;;;10566380;28;20231;-80
2021/03/24 03:14:06;;;;;;;18.87;14.67;;;3.90;91.10;;;;;;10546486;28;20200;-80
2021/03/24 03:19:13;;;;;;;19.33;17.07;;;3.80;91.10;;;;;;10561476;28;20654;-79
2021/03/24 03:24:16;;;;;;;20.27;16.90;;;3.80;91.30;;;;;;10563293;28;20224;-79
2021/03/24 03:29:20;;;;;;;18.30;15.97;;;3.70;91.20;;;;;;10564675;28;20196;-80
2021/03/24 03:34:26;;;;;;;18.73;16.67;;;3.70;91.30;;;;;;10563228;28;20212;-80
2021/03/24 03:39:29;;;;;;;18.40;16.30;;;3.70;91.00;;;;;;10550304;28;20217;-78
2021/03/24 03:44:34;;;;;;;20.17;17.33;;;3.70;91.20;;;;;;10565042;28;20223;-79
2021/03/24 03:49:37;;;;;;;18.20;15.97;;;3.60;91.20;;;;;;10565671;28;20196;-80
2021/03/24 03:54:44;;;;;;;20.73;18.50;;;3.50;91.50;;;;;;10544026;28;20746;-80
2021/03/24 03:59:55;;;;;;;19.40;17.17;;;3.50;91.50;;;;;;10548209;28;20200;-80
2021/03/24 04:05:01;;;;;;;19.30;17.17;;;3.60;91.70;;;;;;10562256;28;20287;-81
2021/03/24 04:10:06;;;;;;;19.30;16.20;;;3.60;91.60;;;;;;10544081;28;20203;-80
2021/03/24 04:15:13;;;;;;;19.13;16.17;;;3.50;91.60;;;;;;10561020;28;20238;-80
2021/03/24 04:20:16;;;;;;;18.30;15.90;;;3.50;91.70;;;;;;10545797;28;20208;-80
2021/03/24 04:25:22;;;;;;;20.00;16.57;;;3.50;91.80;;;;;;10560774;28;20212;-80
2021/03/24 04:30:30;;;;;;;19.57;15.90;;;3.60;91.70;;;;;;10535398;28;20210;-80
2021/03/24 04:35:32;;;;;;;18.60;16.37;;;3.50;91.70;;;;;;10538382;28;20223;-79
2021/03/24 04:40:38;;;;;;;18.60;16.47;;;3.50;91.60;;;;;;10534629;28;20207;-80
2021/03/24 04:45:44;;;;;;;19.43;17.40;;;3.50;91.90;;;;;;10556756;28;20306;-79
2021/03/24 04:50:55;;;;;;;21.20;15.53;;;3.40;91.80;;;;;;10557247;28;20240;-80
2021/03/24 04:55:59;;;;;;;20.70;17.60;;;3.40;92.00;;;;;;10551770;28;20298;-80
2021/03/24 05:01:08;;;;;;;20.00;17.03;;;3.40;91.90;;;;;;10533498;28;20195;-79
2021/03/24 05:06:20;;;;;;;17.57;15.27;;;3.40;92.00;;;;;;10558410;28;20585;-79
2021/03/24 05:11:26;;;;;;;19.90;16.40;;;3.40;91.80;;;;;;10556443;28;20219;-79
2021/03/24 05:16:32;;;;;;;20.57;16.87;;;3.30;92.10;;;;;;10554459;28;20575;-79
2021/03/24 05:22:07;;;;;;;19.43;17.43;;;3.20;92.20;;;;;;10556031;28;20196;-80
2021/03/24 05:27:16;;;;;;;21.83;16.83;;;3.20;92.30;;;;;;10557607;28;20262;-80
2021/03/24 05:32:24;;;;;;;25.53;19.70;;;3.20;92.70;;;;;;10528169;28;20192;-79
2021/03/24 05:37:28;;;;;;;22.10;19.00;;;3.30;92.60;;;;;;10542532;28;20208;-78
2021/03/24 05:42:42;;;;;;;25.00;19.47;;;3.30;92.50;;;;;;10540106;28;20216;-79
2021/03/24 05:48:15;;;;;;;23.80;19.50;;;3.30;92.60;;;;;;10539281;28;20220;-79
2021/03/24 05:53:56;;;;;;;23.63;19.10;;;3.40;92.50;;;;;;10510997;28;20927;-79
2021/03/24 05:59:15;;;;;;;22.10;18.73;;;3.50;92.30;;;;;;10396338;28;20289;-80
2021/03/24 06:04:27;;;;;;;22.40;19.67;;;3.50;92.20;;;;;;10509396;28;20722;-81
2021/03/24 06:09:46;;;;;;;23.30;19.87;;;3.40;92.10;;;;;;10553084;28;20216;-80
2021/03/24 06:15:24;;;;;;;24.90;19.50;;;3.40;92.40;;;;;;10561745;28;20216;-80
2021/03/24 06:20:40;;;;;;;21.30;18.60;;;3.50;92.50;;;;;;10535956;28;20234;-80
2021/03/24 06:25:46;;;;;;;21.70;19.40;;;3.60;92.60;;;;;;10540717;28;20320;-81
2021/03/24 06:31:00;;;;;;;22.73;18.43;;;3.60;92.60;;;;;;10543706;28;20717;-80
2021/03/24 06:36:36;;;;;;;25.57;19.57;;;3.70;92.60;;;;;;10527429;28;20680;-80
2021/03/24 06:42:04;;;;;;;24.50;19.23;;;3.80;92.60;;;;;;10537592;28;20659;-81
2021/03/24 06:47:13;;;;;;;22.57;17.70;;;3.90;92.60;;;;;;10558429;28;20582;-80
2021/03/24 06:52:51;;;;;;;23.63;19.03;;;3.90;92.60;;;;;;10541510;28;20195;-81
2021/03/24 06:58:31;;;;;;;20.83;18.10;;;4.10;92.70;;;;;;10521332;28;20285;-80
2021/03/24 07:04:09;;;;;;;23.07;18.57;;;4.20;92.70;;;;;;10516401;28;20219;-78
2021/03/24 07:09:24;;;;;;;22.70;19.60;;;4.30;92.70;;;;;;10525141;28;20200;-77
2021/03/24 07:14:53;;;;;;;22.13;19.50;;;4.40;92.80;;;;;;10534994;28;20216;-78
2021/03/24 07:20:20;;;;;;;25.73;18.90;;;4.50;93.00;;;;;;10533608;28;20192;-80
2021/03/24 07:25:32;;;;;;;28.57;22.10;;;4.60;93.10;;;;;;10536183;28;20621;-78
2021/03/24 07:30:54;;;;;;;26.20;20.07;;;4.80;93.20;;;;;;10535119;28;20195;-80
2021/03/24 07:36:12;;;;;;;26.13;21.40;;;5.00;92.90;;;;;;10529962;28;20218;-80
2021/03/24 07:41:42;;;;;;;25.27;21.03;;;5.10;92.70;;;;;;10533842;28;20196;-81
2021/03/24 07:47:12;;;;;;;25.27;21.30;;;5.30;92.70;;;;;;10514153;28;20228;-80
2021/03/24 07:52:30;;;;;;;25.77;21.10;;;5.40;92.60;;;;;;10514603;28;20196;-80
2021/03/24 07:57:36;;;;;;;29.37;22.03;;;5.60;92.60;;;;;;10520188;28;20595;-80
2021/03/24 08:03:03;;;;;;;27.87;21.17;;;5.80;92.60;;;;;;10528406;28;20581;-81
2021/03/24 08:08:13;;;;;;;22.67;19.53;;;6.20;92.60;;;;;;10525294;28;20212;-83
2021/03/24 08:13:56;;;;;;;20.70;18.37;;;6.50;92.10;;;;;;10519058;28;20632;-80
2021/03/24 08:19:12;;;;;;;21.13;18.10;;;6.80;91.60;;;;;;10503078;28;20219;-81
2021/03/24 08:24:34;;;;;;;21.00;18.00;;;7.10;91.60;;;;;;10542183;28;20206;-80
2021/03/24 08:29:45;;;;;;;20.53;18.20;;;7.40;91.00;;;;;;10539605;28;20198;-80
2021/03/24 08:35:01;;;;;;;21.40;17.67;;;7.70;90.70;;;;;;10541490;28;20212;-81
2021/03/24 08:40:31;;;;;;;20.37;16.87;;;8.00;90.00;;;;;;10542333;28;20309;-81
2021/03/24 08:45:43;;;;;;;19.83;16.80;;;8.30;89.20;;;;;;10540667;28;20601;-80
2021/03/24 08:50:54;;;;;;;24.50;16.83;;;8.50;86.70;;;;;;10511464;28;20586;-79
2021/03/24 08:56:01;;;;;;;21.07;17.50;;;8.70;86.60;;;;;;10511949;28;20866;-80
2021/03/24 09:01:19;;;;;;;20.53;16.50;;;8.80;85.90;;;;;;10510226;28;20200;-80
2021/03/24 09:06:33;;;;;;;21.20;14.50;;;9.00;86.80;;;;;;10498152;28;20216;-80
2021/03/24 09:11:42;;;;;;;20.37;14.47;;;9.20;84.80;;;;;;10513257;28;20253;-80
2021/03/24 09:17:13;;;;;;;21.20;13.73;;;9.40;84.40;;;;;;10538470;28;20230;-80
2021/03/24 09:22:30;;;;;;;18.57;13.57;;;9.60;84.40;;;;;;10523905;28;20286;-80
2021/03/24 09:28:10;;;;;;;16.10;13.50;;;9.80;83.80;;;;;;10531305;28;20276;-79
2021/03/24 09:33:35;;;;;;;17.30;13.00;;;10.00;78.80;;;;;;10504180;28;20306;-80
2021/03/24 09:38:40;;;;;;;20.10;15.97;;;10.20;80.20;;;;;;10506862;28;20233;-79
2021/03/24 09:43:46;;;;;;;19.30;16.67;;;10.40;81.20;;;;;;10520008;28;20315;-80
2021/03/24 09:48:52;;;;;;;23.60;17.60;;;10.70;80.40;;;;;;10514955;28;20273;-80
2021/03/24 09:54:07;;;;;;;18.90;15.53;;;11.10;80.00;;;;;;10511562;28;20264;-82
2021/03/24 09:59:19;;;;;;;19.40;15.30;;;11.40;78.60;;;;;;10502937;28;20726;-80
2021/03/24 10:04:42;;;;;;;16.87;15.03;;;11.60;77.50;;;;;;10513931;28;20227;-79
2021/03/24 10:09:55;;;;;;;15.37;13.20;;;11.90;77.60;;;;;;10506338;28;20199;-80
2021/03/24 10:15:17;;;;;;;15.73;13.33;;;12.10;76.80;;;;;;10524269;28;20204;-78
2021/03/24 10:20:25;;;;;;;16.83;14.00;;;12.10;75.50;;;;;;10501247;28;20304;-84
2021/03/24 10:25:35;;;;;;;17.07;14.47;;;12.00;75.10;;;;;;10525049;28;20756;-80
2021/03/24 10:30:43;;;;;;;20.33;14.80;;;11.70;76.00;;;;;;10529139;28;20283;-79
2021/03/24 10:35:53;;;;;;;16.90;13.90;;;11.50;75.70;;;;;;10527913;28;20212;-81
2021/03/24 10:41:08;;;;;;;21.37;15.00;;;11.30;76.30;;;;;;10513183;28;20680;-82
2021/03/24 10:46:13;;;;;;;18.10;15.03;;;11.20;75.80;;;;;;10503932;28;20208;-81
2021/03/24 10:51:21;;;;;;;18.80;14.70;;;11.10;76.50;;;;;;10505622;28;20280;-80
2021/03/24 10:56:32;;;;;;;19.30;15.27;;;11.00;76.90;;;;;;10521291;28;20244;-81
2021/03/24 11:01:43;;;;;;;18.20;15.17;;;10.90;77.40;;;;;;10513618;28;20196;-79
2021/03/24 11:06:55;;;;;;;15.73;13.30;;;10.80;77.40;;;;;;10512034;28;20692;-82
2021/03/24 11:12:04;;;;;;;17.50;13.37;;;10.80;78.20;;;;;;10503553;28;20208;-81
2021/03/24 11:17:09;;;;;;;16.90;14.67;;;10.80;77.40;;;;;;10514030;28;20224;-80
2021/03/24 11:22:21;;;;;;;18.00;14.50;;;10.80;78.30;;;;;;10512291;28;20192;-83
2021/03/24 11:27:35;;;;;;;16.97;13.80;;;10.80;78.30;;;;;;10534779;28;20238;-80
2021/03/24 11:32:45;;;;;;;18.83;14.20;;;10.70;80.50;;;;;;10529770;28;20655;-83
2021/03/24 11:37:52;;;;;;;15.47;12.67;;;10.70;80.30;;;;;;10536651;28;20565;-86
2021/03/24 11:42:58;;;;;;;15.80;13.80;;;10.70;78.60;;;;;;10542660;28;20310;-83
2021/03/24 11:48:29;;;;;;;16.23;13.70;;;10.70;78.90;;;;;;10529467;28;20292;-82
2021/03/24 11:53:42;;;;;;;17.33;14.63;;;10.80;78.60;;;;;;10532186;28;20200;-78
2021/03/24 11:58:49;;;;;;;19.07;13.60;;;10.80;78.80;;;;;;10526054;28;20235;-81
2021/03/24 12:04:05;;;;;;;16.07;12.53;;;10.90;78.50;;;;;;10509255;28;20209;-81
2021/03/24 12:09:12;;;;;;;16.97;14.93;;;10.90;79.90;;;;;;10526009;28;20218;-81
2021/03/24 12:14:18;;;;;;;17.77;13.73;;;10.90;78.20;;;;;;10526882;28;20196;-81
2021/03/24 12:19:34;;;;;;;16.17;13.60;;;11.00;78.30;;;;;;10530068;28;20188;-81
2021/03/24 12:24:38;;;;;;;20.73;16.00;;;11.00;77.50;;;;;;10529422;28;20224;-81
2021/03/24 12:29:43;;;;;;;16.20;14.23;;;11.10;77.80;;;;;;10505807;28;20227;-81
2021/03/24 12:34:46;;;;;;;15.87;14.17;;;11.10;77.80;;;;;;10522114;28;20212;-81
2021/03/24 12:39:50;;;;;;;17.70;14.73;;;11.10;78.40;;;;;;10541091;28;20192;-81
2021/03/24 12:44:54;;;;;;;18.23;15.00;;;11.10;77.50;;;;;;10543027;28;20266;-81
2021/03/24 12:50:19;;;;;;;19.17;16.17;;;11.10;78.80;;;;;;10536778;28;20253;-81
2021/03/24 12:55:20;;;;;;;15.00;13.47;;;11.20;76.40;;;;;;10527264;28;20261;-81
2021/03/24 13:00:52;;;;;;;18.00;15.17;;;11.20;79.00;;;;;;10534370;28;20739;-81
2021/03/24 13:06:06;;;;;;;19.73;14.30;;;11.30;77.70;;;;;;10527960;28;20224;-81
2021/03/24 13:11:16;;;;;;;19.77;16.20;;;11.40;77.90;;;;;;10541578;28;20196;-80
2021/03/24 13:16:27;;;;;;;20.93;15.30;;;11.40;78.50;;;;;;10561135;28;20220;-81
2021/03/24 13:21:50;;;;;;;16.30;11.37;;;11.40;78.30;;;;;;10538974;28;20279;-80
2021/03/24 13:27:00;;;;;;;18.07;14.67;;;11.50;79.10;;;;;;10540760;28;20226;-80
2021/03/24 13:32:10;;;;;;;17.10;14.70;;;11.60;78.60;;;;;;10545146;28;20202;-80
2021/03/24 13:37:15;;;;;;;19.20;16.50;;;11.70;78.10;;;;;;10551290;28;20215;-82
2021/03/24 13:42:30;;;;;;;17.10;14.13;;;11.70;78.20;;;;;;10518640;28;20203;-80
2021/03/24 13:47:38;;;;;;;19.70;14.90;;;11.70;77.80;;;;;;10521114;28;20281;-80
2021/03/24 13:52:47;;;;;;;17.20;14.90;;;11.80;77.70;;;;;;10510623;28;20281;-80
2021/03/24 13:57:56;;;;;;;22.03;14.57;;;11.90;78.10;;;;;;10515022;28;20297;-80
2021/03/24 14:03:15;;;;;;;16.37;14.30;;;12.00;76.60;;;;;;10511031;28;20736;-80
2021/03/24 14:08:23;;;;;;;17.07;14.47;;;12.10;77.10;;;;;;10512234;28;20227;-80
2021/03/24 14:13:42;;;;;;;18.40;15.27;;;12.20;77.00;;;;;;10530003;28;20196;-80
2021/03/24 14:18:59;;;;;;;15.00;13.03;;;12.30;76.80;;;;;;10528545;28;20215;-80
2021/03/24 14:24:07;;;;;;;20.33;14.27;;;12.30;78.10;;;;;;10511016;28;20571;-80
2021/03/24 14:29:34;;;;;;;18.50;14.37;;;12.30;75.70;;;;;;10527342;28;20207;-81
2021/03/24 14:34:53;;;;;;;19.83;14.80;;;12.30;76.40;;;;;;10520919;28;20232;-80
2021/03/24 14:40:02;;;;;;;16.43;12.70;;;12.30;76.30;;;;;;10529864;28;20636;-80
2021/03/24 14:45:34;;;;;;;12.80;10.20;;;12.30;77.30;;;;;;10531422;28;20652;-80
2021/03/24 14:50:51;;;;;;;18.90;14.40;;;12.30;77.30;;;;;;10526063;28;20208;-80
2021/03/24 14:55:56;;;;;;;16.87;13.60;;;12.20;77.10;;;;;;10532409;28;20216;-82
2021/03/24 15:01:10;;;;;;;18.00;13.73;;;12.30;77.80;;;;;;10532819;28;20204;-81
2021/03/24 15:06:27;;;;;;;15.77;13.07;;;12.30;74.80;;;;;;10519455;28;20482;-80
2021/03/24 15:11:37;;;;;;;15.63;13.07;;;12.40;77.60;;;;;;10532647;28;20268;-80
2021/03/24 15:16:49;;;;;;;16.70;12.30;;;12.40;76.00;;;;;;10532463;28;20245;-81
2021/03/24 15:22:02;;;;;;;17.60;12.60;;;12.40;77.60;;;;;;10515432;28;20207;-82
2021/03/24 15:27:08;;;;;;;16.00;12.63;;;12.40;76.40;;;;;;10534019;28;20726;-80
2021/03/24 15:32:20;;;;;;;16.77;12.63;;;12.50;75.40;;;;;;10529488;28;20567;-82
2021/03/24 15:37:45;;;;;;;16.03;11.37;;;12.60;77.00;;;;;;10532314;28;20307;-82
2021/03/24 15:42:54;;;;;;;18.30;11.80;;;12.60;77.00;;;;;;10517254;28;20719;-80
2021/03/24 15:47:57;;;;;;;14.27;11.43;;;12.50;76.30;;;;;;10510885;28;20250;-79
2021/03/24 15:53:16;;;;;;;14.73;10.87;;;12.50;76.30;;;;;;10531240;28;20192;-80
2021/03/24 15:58:52;;;;;;;14.57;10.60;;;12.50;75.90;;;;;;10538338;28;20287;-80
2021/03/24 16:04:17;;;;;;;17.37;11.63;;;12.50;78.50;;;;;;10546040;28;20254;-80
2021/03/24 16:09:30;;;;;;;17.00;10.83;;;12.40;78.30;;;;;;10529833;28;20287;-80
2021/03/24 16:14:47;;;;;;;15.10;12.03;;;12.60;73.90;;;;;;10530966;28;20787;-80
2021/03/24 16:19:56;;;;;;;15.33;10.53;;;12.60;74.70;;;;;;10529894;28;20202;-79
2021/03/24 16:25:13;;;;;;;13.63;9.90;;;12.60;74.80;;;;;;10539712;28;20311;-80
2021/03/24 16:30:22;;;;;;;12.80;10.30;;;12.70;77.10;;;;;;10541570;28;20211;-80
2021/03/24 16:36:02;;;;;;;13.30;9.83;;;12.50;75.40;;;;;;10540200;28;20566;-80
2021/03/24 16:41:15;;;;;;;18.00;11.80;;;12.50;76.60;;;;;;10541502;28;20196;-80
2021/03/24 16:46:42;;;;;;;12.00;10.10;;;12.50;75.20;;;;;;10524571;28;20293;-80
2021/03/24 16:52:08;;;;;;;10.80;9.27;;;12.40;76.10;;;;;;10545901;28;20196;-80
2021/03/24 16:57:37;;;;;;;12.67;10.20;;;12.30;77.70;;;;;;10525750;28;20219;-81
2021/03/24 17:02:52;;;;;;;12.07;9.60;;;12.30;77.60;;;;;;10540504;28;20738;-81
2021/03/24 17:08:02;;;;;;;14.70;10.97;;;12.10;80.40;;;;;;10539483;28;20307;-82
2021/03/24 17:13:14;;;;;;;15.17;9.10;;;12.00;79.60;;;;;;10541647;28;20195;-81
2021/03/24 17:18:23;;;;;;;13.63;8.87;;;12.00;78.10;;;;;;10518897;28;20223;-80
2021/03/24 17:23:29;;;;;;;9.20;7.70;;;12.10;78.10;;;;;;10542983;28;20204;-78
2021/03/24 17:28:33;;;;;;;8.37;7.20;;;12.10;78.20;;;;;;10528130;28;20235;-79
2021/03/24 17:33:47;;;;;;;9.40;8.03;;;12.10;78.30;;;;;;10545108;28;20698;-80
2021/03/24 17:38:50;;;;;;;12.30;8.97;;;12.00;78.70;;;;;;10528532;28;20239;-80
2021/03/24 17:43:58;;;;;;;12.60;8.50;;;12.00;78.50;;;;;;10546001;28;20215;-82
2021/03/24 17:49:09;;;;;;;10.77;8.27;;;11.80;78.30;;;;;;10521640;28;20874;-80
2021/03/24 17:54:28;;;;;;;11.67;8.73;;;11.70;78.70;;;;;;10526143;28;20195;-80
2021/03/24 17:59:55;;;;;;;9.43;8.37;;;11.50;79.00;;;;;;10526977;28;20194;-78
2021/03/24 18:05:01;;;;;;;10.27;9.07;;;11.40;79.60;;;;;;10511656;28;20276;-80
2021/03/24 18:10:07;;;;;;;11.83;9.60;;;11.20;79.70;;;;;;10541951;28;20591;-80
2021/03/24 18:15:22;;;;;;;13.50;10.30;;;11.10;79.90;;;;;;10523174;28;20211;-83
2021/03/24 18:20:27;;;;;;;12.87;9.90;;;11.00;79.80;;;;;;10525747;28;20206;-81
2021/03/24 18:25:31;;;;;;;12.60;9.70;;;10.90;80.10;;;;;;10541801;28;20231;-83
2021/03/24 18:30:37;;;;;;;11.77;9.63;;;10.70;80.30;;;;;;10519479;28;20582;-83
2021/03/24 18:35:40;;;;;;;14.90;11.70;;;10.60;80.90;;;;;;10533914;28;20200;-79
2021/03/24 18:40:43;;;;;;;14.33;11.77;;;10.50;80.60;;;;;;10537317;28;20204;-81
2021/03/24 18:45:49;;;;;;;13.30;10.90;;;10.40;81.30;;;;;;10544078;28;20740;-82
2021/03/24 18:50:53;;;;;;;13.90;11.40;;;10.30;82.20;;;;;;10526146;28;20196;-82
2021/03/24 18:56:07;;;;;;;19.63;15.67;;;10.30;81.70;;;;;;10525383;28;20212;-80
2021/03/24 19:01:25;;;;;;;26.50;22.90;;;10.10;81.80;;;;;;10539449;28;20200;-82
2021/03/24 19:06:28;;;;;;;22.47;18.67;;;10.00;82.20;;;;;;10525981;28;20695;-82
2021/03/24 19:11:38;;;;;;;24.57;19.87;;;9.90;83.40;;;;;;10543241;28;20245;-83
2021/03/24 19:16:40;;;;;;;16.73;14.93;;;9.90;84.30;;;;;;10541295;28;20239;-82
2021/03/24 19:21:45;;;;;;;17.57;14.20;;;9.80;84.10;;;;;;10549524;28;20204;-81
2021/03/24 19:27:09;;;;;;;16.97;15.13;;;9.80;84.20;;;;;;10545702;28;20281;-82
2021/03/24 19:32:42;;;;;;;17.40;14.20;;;9.70;85.00;;;;;;10545724;28;20196;-82
2021/03/24 19:37:44;;;;;;;18.47;14.57;;;9.70;84.20;;;;;;10413093;28;20216;-81
2021/03/24 19:42:51;;;;;;;16.40;14.67;;;9.50;84.40;;;;;;10547033;28;20202;-83
2021/03/24 19:47:59;;;;;;;19.97;16.07;;;9.40;84.50;;;;;;10547622;28;20291;-82
2021/03/24 19:53:01;;;;;;;17.40;14.33;;;9.40;85.00;;;;;;10551312;28;20589;-81
2021/03/24 19:58:08;;;;;;;15.97;13.70;;;9.30;85.40;;;;;;10547684;28;20261;-82
2021/03/24 20:03:26;;;;;;;17.17;14.77;;;9.30;85.40;;;;;;10548080;28;20695;-82
2021/03/24 20:08:47;;;;;;;18.53;14.73;;;9.20;85.30;;;;;;10531622;28;20288;-82
2021/03/24 20:13:54;;;;;;;16.20;13.50;;;9.10;85.50;;;;;;10550003;28;20304;-81
2021/03/24 20:18:59;;;;;;;20.00;15.67;;;9.00;85.90;;;;;;10560965;28;20230;-79
2021/03/24 20:24:03;;;;;;;17.30;14.07;;;9.00;85.70;;;;;;10544156;28;20242;-82
2021/03/24 20:29:18;;;;;;;16.77;13.90;;;8.90;85.80;;;;;;10559089;22;20661;-77
2021/03/24 20:34:44;;;;;;;17.30;14.57;;;8.90;85.70;;;;;;10531167;28;20666;-77
2021/03/24 20:40:23;;;;;;;14.97;13.37;;;8.80;86.00;;;;;;10521679;28;20204;-77
2021/03/24 20:45:40;;;;;;;14.70;12.53;;;8.80;86.00;;;;;;10468443;28;20608;-78
2021/03/24 20:50:45;;;;;;;17.97;13.77;;;8.80;85.80;;;;;;10496764;28;20189;-77
2021/03/24 20:55:48;;;;;;;15.93;13.63;;;8.80;86.10;;;;;;10487590;28;20225;-77
2021/03/24 21:00:50;;;;;;;15.30;12.90;;;8.70;86.30;;;;;;10456330;28;20197;-77
2021/03/24 21:05:53;;;;;;;17.40;12.53;;;8.70;86.40;;;;;;10479185;28;20567;-77
2021/03/24 21:10:56;;;;;;;14.70;12.33;;;8.70;86.20;;;;;;10475756;28;20576;-78
2021/03/24 21:15:58;;;;;;;14.57;12.93;;;8.70;86.30;;;;;;10479324;28;20217;-78
2021/03/24 21:21:04;;;;;;;12.20;10.90;;;8.70;85.90;;;;;;10480042;28;20243;-78
2021/03/24 21:26:07;;;;;;;12.80;11.47;;;8.70;85.60;;;;;;10476039;28;20631;-78
2021/03/24 21:31:09;;;;;;;11.60;10.03;;;8.60;85.20;;;;;;10493103;28;20294;-78
2021/03/24 21:36:11;;;;;;;13.27;11.07;;;8.60;84.80;;;;;;10515791;28;20213;-78
2021/03/24 21:41:17;;;;;;;12.97;11.57;;;8.50;85.00;;;;;;10497961;28;20212;-78
2021/03/24 21:46:24;;;;;;;18.80;13.50;;;8.50;84.80;;;;;;10491865;28;20225;-78
2021/03/24 21:51:29;;;;;;;17.70;14.00;;;8.40;85.30;;;;;;10491972;28;20196;-78
2021/03/24 21:56:38;;;;;;;16.57;12.97;;;8.40;85.40;;;;;;10487050;28;20774;-78
2021/03/24 22:01:49;;;;;;;14.03;11.37;;;8.30;84.90;;;;;;10485599;28;20200;-78
2021/03/24 22:06:51;;;;;;;13.87;11.53;;;8.30;85.60;;;;;;10504327;28;20277;-78
2021/03/24 22:11:53;;;;;;;13.40;11.30;;;8.20;86.00;;;;;;10515685;28;20627;-78
2021/03/24 22:17:22;;;;;;;14.40;11.97;;;8.10;85.80;;;;;;10505703;28;20236;-78
2021/03/24 22:22:27;;;;;;;15.33;11.53;;;8.10;85.70;;;;;;10469062;28;20474;-78
2021/03/24 22:27:36;;;;;;;17.67;11.70;;;8.00;85.60;;;;;;10492968;28;20224;-77
2021/03/24 22:32:59;;;;;;;16.80;12.20;;;8.00;86.50;;;;;;10482986;28;20278;-78
2021/03/24 22:38:08;;;;;;;12.50;10.83;;;8.00;86.30;;;;;;10494721;28;20617;-78
2021/03/24 22:43:12;;;;;;;14.63;11.90;;;8.10;86.10;;;;;;10526349;28;20203;-77
2021/03/24 22:48:33;;;;;;;13.77;11.03;;;8.10;86.00;;;;;;10486217;28;20653;-78
2021/03/24 22:53:49;;;;;;;16.40;12.87;;;7.90;86.50;;;;;;10509790;28;20197;-78
2021/03/24 22:59:02;;;;;;;16.00;13.73;;;7.80;87.50;;;;;;10477031;28;20224;-78
2021/03/24 23:04:06;;;;;;;14.30;11.90;;;7.70;87.70;;;;;;10495584;28;20216;-78
2021/03/24 23:09:10;;;;;;;17.40;13.43;;;7.70;88.40;;;;;;10492941;28;20232;-78
2021/03/24 23:14:18;;;;;;;18.40;13.40;;;7.70;88.50;;;;;;10493260;28;20213;-78
2021/03/24 23:19:26;;;;;;;17.80;13.87;;;7.70;88.30;;;;;;10504882;28;20752;-77
2021/03/24 23:24:29;;;;;;;16.80;13.30;;;7.60;88.80;;;;;;10533745;28;20232;-78
2021/03/24 23:29:32;;;;;;;17.60;13.17;;;7.60;88.80;;;;;;10520518;28;20748;-78
2021/03/24 23:34:41;;;;;;;20.83;14.00;;;7.50;89.40;;;;;;10519213;28;20727;-78
2021/03/24 23:39:44;;;;;;;19.53;13.80;;;7.50;89.60;;;;;;10531317;28;20215;-78
2021/03/24 23:44:46;;;;;;;16.33;14.43;;;7.50;89.80;;;;;;10534150;28;20235;-78
2021/03/24 23:49:47;;;;;;;20.50;14.10;;;7.40;89.90;;;;;;10520901;28;20202;-78
2021/03/24 23:54:50;;;;;;;14.60;11.70;;;7.40;89.90;;;;;;10500570;28;20224;-79
2021/03/24 23:59:58;;;;;;;16.03;13.57;;;7.40;90.10;;;;;;10532664;28;20199;-78
